createdAt,value
2022-12-26T00:01:28.860Z,166.50
2022-12-26T00:06:30.067Z,142.10
2022-12-26T00:11:28.233Z,62.00
2022-12-26T00:16:26.898Z,59.00
2022-12-26T00:21:26.700Z,51.80
2022-12-26T00:26:24.897Z,64.00
2022-12-26T00:31:26.134Z,28.80
2022-12-26T00:36:22.378Z,68.70
2022-12-26T00:41:22.570Z,44.80
2022-12-26T00:46:23.820Z,75.20
2022-12-26T00:51:21.053Z,36.60
2022-12-26T00:56:20.268Z,30.50
2022-12-26T01:01:20.580Z,26.90
2022-12-26T01:06:18.708Z,27.60
2022-12-26T01:11:17.899Z,48.40
2022-12-26T01:16:17.109Z,22.10
2022-12-26T01:21:16.285Z,123.80
2022-12-26T01:26:20.322Z,65.70
2022-12-26T01:31:15.631Z,220.00
2022-12-26T01:36:13.805Z,129.50
2022-12-26T01:41:12.991Z,180.70
2022-12-26T01:46:12.154Z,151.60
2022-12-26T01:51:11.360Z,204.60
2022-12-26T01:56:10.532Z,189.90
2022-12-26T02:01:10.804Z,196.20
2022-12-26T02:06:09.849Z,193.60
2022-12-26T02:11:08.044Z,143.70
2022-12-26T02:16:07.440Z,72.90
2022-12-26T02:21:07.596Z,102.00
2022-12-26T02:26:06.883Z,96.90
2022-12-26T02:31:05.204Z,95.10
2022-12-26T02:36:03.579Z,73.20
2022-12-26T02:41:04.688Z,75.10
2022-12-26T02:46:04.041Z,87.70
2022-12-26T02:51:02.169Z,75.00
2022-12-26T02:56:01.490Z,72.90
2022-12-26T03:00:59.826Z,76.70
2022-12-26T03:05:59.979Z,63.40
2022-12-26T03:11:00.132Z,58.20
2022-12-26T03:15:58.456Z,41.50
2022-12-26T03:20:56.763Z,43.60
2022-12-26T03:25:59.088Z,69.10
2022-12-26T03:30:57.426Z,50.20
2022-12-26T03:35:55.634Z,33.00
2022-12-26T03:40:54.767Z,36.00
2022-12-26T03:45:56.199Z,25.70
2022-12-26T03:50:52.341Z,27.10
2022-12-26T03:55:52.658Z,33.20
2022-12-26T04:00:51.984Z,22.30
2022-12-26T04:05:52.301Z,19.50
2022-12-26T04:10:50.606Z,19.90
2022-12-26T04:15:49.964Z,17.10
2022-12-26T04:20:49.085Z,17.40
2022-12-26T04:25:51.460Z,21.80
2022-12-26T04:30:46.605Z,12.50
2022-12-26T04:35:47.713Z,12.30
2022-12-26T04:40:47.057Z,12.80
2022-12-26T04:45:45.185Z,12.90
2022-12-26T04:50:44.556Z,9.50
2022-12-26T04:55:43.701Z,9.30
2022-12-26T05:00:42.819Z,7.50
2022-12-26T05:05:44.169Z,7.40
2022-12-26T05:10:42.307Z,6.60
2022-12-26T05:15:41.632Z,6.50
2022-12-26T05:20:39.811Z,6.00
2022-12-26T05:25:39.037Z,8.10
2022-12-26T05:30:38.165Z,7.10
2022-12-26T05:35:37.364Z,6.20
2022-12-26T05:40:37.476Z,5.90
2022-12-26T05:45:36.780Z,4.40
2022-12-26T05:50:35.087Z,4.00
2022-12-26T05:55:36.407Z,4.50
2022-12-26T06:00:34.697Z,4.10
2022-12-26T06:05:33.120Z,4.10
2022-12-26T06:10:31.234Z,3.20
2022-12-26T06:15:31.585Z,3.50
2022-12-26T06:20:31.690Z,3.00
2022-12-26T06:25:29.950Z,2.90
2022-12-26T06:30:30.241Z,4.40
2022-12-26T06:35:28.538Z,3.90
2022-12-26T06:40:28.849Z,4.00
2022-12-26T06:45:28.148Z,4.90
2022-12-26T06:50:27.434Z,5.00
2022-12-26T06:55:25.630Z,4.60
2022-12-26T07:00:24.881Z,4.80
2022-12-26T07:05:24.058Z,4.40
2022-12-26T07:10:25.241Z,4.20
2022-12-26T07:15:23.479Z,4.00
2022-12-26T07:20:21.662Z,4.80
2022-12-26T07:25:20.855Z,4.00
2022-12-26T07:30:20.080Z,4.20
2022-12-26T07:35:19.280Z,4.00
2022-12-26T07:40:19.494Z,3.90
2022-12-26T07:45:18.751Z,3.20
2022-12-26T07:50:16.950Z,3.20
2022-12-26T07:55:17.137Z,3.70
2022-12-26T08:00:16.354Z,2.90
2022-12-26T08:05:14.600Z,3.20
2022-12-26T08:10:14.802Z,3.30
2022-12-26T08:15:32.010Z,3.40
2022-12-26T08:20:16.217Z,2.60
2022-12-26T08:25:16.716Z,2.90
2022-12-26T08:30:11.670Z,2.30
2022-12-26T08:35:09.978Z,2.70
2022-12-26T08:40:10.284Z,2.50
2022-12-26T08:45:08.579Z,2.70
2022-12-26T08:50:07.863Z,2.40
2022-12-26T08:55:07.167Z,2.00
2022-12-26T09:00:10.587Z,1.80
2022-12-26T09:05:06.663Z,1.90
2022-12-26T09:10:05.994Z,2.00
2022-12-26T09:15:05.301Z,1.50
2022-12-26T09:20:03.609Z,1.70
2022-12-26T09:25:02.976Z,1.70
2022-12-26T09:30:02.076Z,1.40
2022-12-26T09:35:02.388Z,1.30
2022-12-26T09:39:59.708Z,1.10
2022-12-26T09:45:00.937Z,1.10
2022-12-26T09:49:59.071Z,1.70
2022-12-26T09:54:58.202Z,1.20
2022-12-26T09:59:58.531Z,1.10
2022-12-26T10:04:56.918Z,1.20
2022-12-26T10:09:58.037Z,1.20
2022-12-26T10:14:55.367Z,1.20
2022-12-26T10:19:54.631Z,1.30
2022-12-26T10:24:53.741Z,1.30
2022-12-26T10:29:55.065Z,1.00
2022-12-26T10:34:54.364Z,1.10
2022-12-26T10:39:51.647Z,0.90
2022-12-26T10:44:51.985Z,1.20
2022-12-26T10:49:50.286Z,0.70
2022-12-26T10:54:50.597Z,0.90
2022-12-26T10:59:48.839Z,0.90
2022-12-26T11:05:15.585Z,1.00
2022-12-26T11:09:47.130Z,1.10
2022-12-26T11:14:46.428Z,1.00
2022-12-26T11:19:45.743Z,1.30
2022-12-26T11:24:45.058Z,1.20
2022-12-26T11:29:46.366Z,1.40
2022-12-26T11:34:43.635Z,1.20
2022-12-26T11:39:42.931Z,1.70
2022-12-26T11:44:43.242Z,1.40
2022-12-26T11:49:42.529Z,2.80
2022-12-26T11:54:40.810Z,92.20
2022-12-26T11:59:41.129Z,76.40
2022-12-26T12:04:40.362Z,75.30
2022-12-26T12:09:39.655Z,164.70
2022-12-26T12:14:38.986Z,162.60
2022-12-26T12:19:37.288Z,85.20
2022-12-26T12:24:36.410Z,137.80
2022-12-26T12:29:35.715Z,188.20
2022-12-26T12:34:34.851Z,119.70
2022-12-26T12:39:35.159Z,95.30
2022-12-26T12:44:33.468Z,65.60
2022-12-26T12:49:51.764Z,54.90
2022-12-26T12:54:32.977Z,37.20
2022-12-26T12:59:30.284Z,58.30
2022-12-26T13:04:30.582Z,41.40
2022-12-26T13:09:30.885Z,55.80
2022-12-26T13:14:29.298Z,28.30
2022-12-26T13:19:29.424Z,41.80
2022-12-26T13:24:28.746Z,49.80
2022-12-26T13:29:27.045Z,48.50
2022-12-26T13:34:26.381Z,40.60
2022-12-26T13:39:26.499Z,29.30
2022-12-26T13:44:25.793Z,24.00
2022-12-26T13:49:24.145Z,17.30
2022-12-26T13:54:23.313Z,16.90
2022-12-26T13:59:24.625Z,12.60
2022-12-26T14:04:22.854Z,25.90
2022-12-26T14:09:22.090Z,21.90
2022-12-26T14:14:21.288Z,14.70
2022-12-26T14:19:20.489Z,30.30
2022-12-26T14:24:19.672Z,20.40
2022-12-26T14:29:17.881Z,10.90
2022-12-26T14:34:17.064Z,12.70
2022-12-26T14:39:16.266Z,11.70
2022-12-26T14:44:17.464Z,8.90
2022-12-26T14:49:14.640Z,11.20
2022-12-26T14:54:13.843Z,8.40
2022-12-26T14:59:14.055Z,11.50
2022-12-26T15:04:12.212Z,5.40
2022-12-26T15:09:11.387Z,6.20
2022-12-26T15:14:10.535Z,10.40
2022-12-26T15:19:10.969Z,63.90
2022-12-26T15:24:09.910Z,117.30
2022-12-26T15:29:10.096Z,147.70
2022-12-26T15:34:06.274Z,172.50
2022-12-26T15:39:07.445Z,139.00
2022-12-26T15:44:05.606Z,123.10
2022-12-26T15:49:05.819Z,110.00
2022-12-26T15:54:04.959Z,155.20
2022-12-26T15:59:09.159Z,188.30
2022-12-26T16:04:02.321Z,155.40
2022-12-26T16:09:03.685Z,107.10
2022-12-26T16:14:15.628Z,176.30
2022-12-26T16:19:00.924Z,167.60
2022-12-26T16:24:01.134Z,134.20
2022-12-26T16:28:58.287Z,159.10
2022-12-26T16:33:57.461Z,165.90
2022-12-26T16:38:58.645Z,307.00
2022-12-26T16:43:55.792Z,104.60
2022-12-26T16:48:55.998Z,82.40
2022-12-26T16:53:54.212Z,91.00
2022-12-26T16:58:54.573Z,41.90
2022-12-26T17:03:52.578Z,58.90
2022-12-26T17:08:51.782Z,43.80
2022-12-26T17:13:51.013Z,64.40
2022-12-26T17:18:49.202Z,54.60
2022-12-26T17:23:49.402Z,31.40
2022-12-26T17:28:48.609Z,45.30
2022-12-26T17:33:48.798Z,49.60
2022-12-26T17:38:47.985Z,46.30
2022-12-26T17:43:46.386Z,37.30
2022-12-26T17:48:46.414Z,28.60
2022-12-26T17:53:44.693Z,20.70
2022-12-26T17:58:43.922Z,28.70
2022-12-26T18:03:43.110Z,28.20
2022-12-26T18:08:43.506Z,26.60
2022-12-26T18:13:43.635Z,26.30
2022-12-26T18:18:42.979Z,24.30
2022-12-26T18:23:39.989Z,22.20
2022-12-26T18:28:39.174Z,22.70
2022-12-26T18:33:38.467Z,18.30
2022-12-26T18:38:38.874Z,22.80
2022-12-26T18:43:36.906Z,15.30
2022-12-26T18:48:35.049Z,11.70
2022-12-26T18:53:35.284Z,19.10
2022-12-26T18:58:34.467Z,15.00
2022-12-26T19:03:33.666Z,18.50
2022-12-26T19:08:32.879Z,19.10
2022-12-26T19:13:32.058Z,18.10
2022-12-26T19:18:32.442Z,17.40
2022-12-26T19:23:30.482Z,11.90
2022-12-26T19:28:30.812Z,16.30
2022-12-26T19:33:29.838Z,123.80
2022-12-26T19:38:28.049Z,160.50
2022-12-26T19:43:26.241Z,204.30
2022-12-26T19:48:27.458Z,275.50
2022-12-26T19:53:25.646Z,351.50
2022-12-26T19:58:26.862Z,179.60
2022-12-26T20:03:24.290Z,259.60
2022-12-26T20:08:23.324Z,287.30
2022-12-26T20:13:22.585Z,348.80
2022-12-26T20:18:21.928Z,321.90
2022-12-26T20:23:20.926Z,227.50
2022-12-26T20:28:20.107Z,292.40
2022-12-26T20:33:20.273Z,199.10
2022-12-26T20:38:19.473Z,268.80
2022-12-26T20:43:17.634Z,329.40
2022-12-26T20:48:16.825Z,359.90
2022-12-26T20:53:16.989Z,303.40
2022-12-26T20:58:18.128Z,136.10
2022-12-26T21:03:14.622Z,272.70
2022-12-26T21:08:14.037Z,238.70
2022-12-26T21:13:13.071Z,218.20
2022-12-26T21:18:12.244Z,190.10
2022-12-26T21:23:13.648Z,226.10
2022-12-26T21:28:12.682Z,120.90
2022-12-26T21:33:09.886Z,107.70
2022-12-26T21:38:11.096Z,231.70
2022-12-26T21:43:08.281Z,301.80
2022-12-26T21:48:08.476Z,310.90
2022-12-26T21:53:07.660Z,205.90
2022-12-26T21:58:05.850Z,189.00
2022-12-26T22:03:06.053Z,274.90
2022-12-26T22:08:04.281Z,204.20
2022-12-26T22:13:04.519Z,170.80
2022-12-26T22:18:02.690Z,102.20
2022-12-26T22:23:01.878Z,105.20
2022-12-26T22:28:02.041Z,181.50
2022-12-26T22:33:00.200Z,177.30
2022-12-26T22:38:00.377Z,177.20
2022-12-26T22:42:58.551Z,93.80
2022-12-26T22:47:56.745Z,52.20
2022-12-26T22:52:57.914Z,55.20
2022-12-26T22:58:00.680Z,93.40
2022-12-26T23:02:56.514Z,56.60
2022-12-26T23:07:54.615Z,55.80
2022-12-26T23:12:53.784Z,131.30
2022-12-26T23:17:52.963Z,122.00
2022-12-26T23:22:52.133Z,106.20
2022-12-26T23:27:51.315Z,88.20
2022-12-26T23:32:50.494Z,100.60
2022-12-26T23:37:49.676Z,126.20
2022-12-26T23:42:48.882Z,60.40
2022-12-26T23:47:48.061Z,52.90
2022-12-26T23:52:47.247Z,170.10
2022-12-26T23:57:46.388Z,167.20
